createdAt,value
2023-05-22T00:00:16.740Z,53.51
2023-05-22T00:02:43.987Z,53.42
2023-05-22T00:05:14.913Z,53.90
2023-05-22T00:07:43.269Z,54.00
2023-05-22T00:10:10.915Z,53.90
2023-05-22T00:12:38.057Z,53.54
2023-05-22T00:15:06.095Z,54.08
2023-05-22T00:17:34.249Z,54.18
2023-05-22T00:20:07.331Z,54.28
2023-05-22T00:22:37.828Z,54.29
2023-05-22T00:25:05.593Z,54.54
2023-05-22T00:27:33.532Z,54.25
2023-05-22T00:30:01.157Z,54.92
2023-05-22T00:32:28.111Z,55.09
2023-05-22T00:34:55.011Z,54.99
2023-05-22T00:37:21.825Z,55.35
2023-05-22T00:39:49.149Z,55.32
2023-05-22T00:42:16.017Z,55.65
2023-05-22T00:44:42.954Z,55.31
2023-05-22T00:47:10.193Z,55.60
2023-05-22T00:49:37.025Z,56.32
2023-05-22T00:52:04.093Z,56.09
2023-05-22T00:54:32.068Z,56.30
2023-05-22T00:57:00.664Z,56.41
2023-05-22T00:59:29.036Z,56.15
2023-05-22T01:01:57.290Z,56.16
2023-05-22T01:04:25.443Z,56.34
2023-05-22T01:06:53.730Z,57.00
2023-05-22T01:09:20.712Z,57.24
2023-05-22T01:12:14.640Z,56.98
2023-05-22T01:14:53.828Z,57.01
2023-05-22T01:17:46.507Z,57.40
2023-05-22T01:20:38.170Z,56.98
2023-05-22T01:23:31.467Z,57.09
2023-05-22T01:26:19.359Z,57.15
2023-05-22T01:29:09.172Z,56.86
2023-05-22T01:31:39.982Z,57.20
2023-05-22T01:34:10.603Z,57.57
2023-05-22T01:36:41.586Z,57.38
2023-05-22T01:39:09.065Z,57.16
2023-05-22T01:41:36.295Z,56.91
2023-05-22T01:44:03.763Z,57.03
2023-05-22T01:46:31.528Z,57.87
2023-05-22T01:48:59.526Z,57.73
2023-05-22T01:51:45.623Z,57.97
2023-05-22T01:54:30.658Z,57.77
2023-05-22T01:57:17.935Z,57.12
2023-05-22T01:59:46.045Z,57.41
2023-05-22T02:02:17.838Z,57.20
2023-05-22T02:04:49.807Z,57.50
2023-05-22T02:07:19.612Z,57.82
2023-05-22T02:09:49.062Z,57.58
2023-05-22T02:12:16.329Z,57.50
2023-05-22T02:14:43.882Z,57.50
2023-05-22T02:17:10.744Z,57.30
2023-05-22T02:19:38.025Z,57.60
2023-05-22T02:22:05.823Z,57.75
2023-05-22T02:24:36.999Z,57.68
2023-05-22T02:27:04.342Z,57.79
2023-05-22T02:29:31.338Z,58.16
2023-05-22T02:31:58.673Z,58.10
2023-05-22T02:34:27.015Z,58.38
2023-05-22T02:36:53.907Z,58.12
2023-05-22T02:39:20.647Z,58.25
2023-05-22T02:41:47.719Z,58.07
2023-05-22T02:44:14.725Z,58.06
2023-05-22T02:46:43.080Z,57.81
2023-05-22T02:49:10.113Z,57.57
2023-05-22T02:51:37.287Z,57.87
2023-05-22T02:54:04.155Z,57.54
2023-05-22T02:56:31.260Z,57.76
2023-05-22T02:58:58.163Z,57.59
2023-05-22T03:01:26.626Z,57.67
2023-05-22T03:03:55.092Z,57.71
2023-05-22T03:06:23.287Z,57.68
2023-05-22T03:08:50.838Z,57.79
2023-05-22T03:11:17.656Z,57.76
2023-05-22T03:13:44.842Z,57.91
2023-05-22T03:16:11.671Z,57.83
2023-05-22T03:18:43.152Z,57.63
2023-05-22T03:21:10.032Z,57.93
2023-05-22T03:23:36.828Z,57.95
2023-05-22T03:26:03.911Z,58.07
2023-05-22T03:28:34.469Z,58.03
2023-05-22T03:31:01.266Z,58.18
2023-05-22T03:33:35.216Z,58.43
2023-05-22T03:36:03.697Z,57.95
2023-05-22T03:38:30.782Z,57.45
2023-05-22T03:40:57.674Z,57.11
2023-05-22T03:43:24.548Z,57.14
2023-05-22T03:45:51.539Z,56.85
2023-05-22T03:48:18.434Z,56.48
2023-05-22T03:50:46.318Z,55.94
2023-05-22T03:53:13.151Z,55.50
2023-05-22T03:55:39.949Z,55.47
2023-05-22T03:58:07.056Z,55.54
2023-05-22T04:00:34.903Z,55.99
2023-05-22T04:03:02.260Z,55.67
2023-05-22T04:05:30.377Z,55.60
2023-05-22T04:07:57.726Z,55.78
2023-05-22T04:10:24.634Z,55.45
2023-05-22T04:12:51.646Z,55.31
2023-05-22T04:15:18.429Z,55.08
2023-05-22T04:17:45.472Z,55.29
2023-05-22T04:20:12.664Z,55.30
2023-05-22T04:22:39.541Z,54.73
2023-05-22T04:25:07.010Z,54.70
2023-05-22T04:27:34.506Z,54.07
2023-05-22T04:30:03.059Z,53.66
2023-05-22T04:32:30.167Z,52.78
2023-05-22T04:34:58.437Z,52.82
2023-05-22T04:37:26.563Z,52.51
2023-05-22T04:39:58.280Z,52.37
2023-05-22T04:42:25.503Z,52.49
2023-05-22T04:44:58.041Z,52.60
2023-05-22T04:47:24.927Z,52.55
2023-05-22T04:49:51.819Z,52.52
2023-05-22T04:52:18.742Z,51.79
2023-05-22T04:54:46.927Z,51.49
2023-05-22T04:57:14.231Z,52.22
2023-05-22T04:59:41.530Z,51.86
2023-05-22T05:02:09.692Z,51.93
2023-05-22T05:04:37.447Z,51.25
2023-05-22T05:07:06.164Z,51.31
2023-05-22T05:09:33.570Z,51.79
2023-05-22T05:12:02.799Z,51.20
2023-05-22T05:14:30.599Z,51.33
2023-05-22T05:16:58.916Z,51.25
2023-05-22T05:19:26.437Z,50.73
2023-05-22T05:21:53.678Z,50.52
2023-05-22T05:24:22.840Z,50.56
2023-05-22T05:26:51.215Z,50.15
2023-05-22T05:29:19.818Z,50.20
2023-05-22T05:31:58.629Z,49.91
2023-05-22T05:34:40.509Z,49.93
2023-05-22T05:37:19.958Z,48.11
2023-05-22T05:39:47.539Z,48.21
2023-05-22T05:42:15.106Z,46.98
2023-05-22T05:44:42.408Z,47.01
2023-05-22T05:47:09.277Z,47.16
2023-05-22T05:49:36.419Z,47.42
2023-05-22T05:52:05.282Z,48.08
2023-05-22T05:54:35.056Z,47.82
2023-05-22T05:57:06.722Z,47.56
2023-05-22T05:59:33.512Z,46.88
2023-05-22T06:02:39.568Z,47.93
2023-05-22T06:05:12.382Z,47.79
2023-05-22T06:07:40.795Z,47.71
2023-05-22T06:10:12.997Z,47.29
2023-05-22T06:12:49.941Z,47.98
2023-05-22T06:15:16.930Z,47.56
2023-05-22T06:17:43.882Z,47.65
2023-05-22T06:20:11.131Z,47.57
2023-05-22T06:22:37.949Z,47.44
2023-05-22T06:25:05.446Z,47.26
2023-05-22T06:27:33.941Z,47.29
2023-05-22T06:30:03.729Z,46.36
2023-05-22T06:32:35.749Z,46.78
2023-05-22T06:35:03.349Z,46.72
2023-05-22T06:37:33.094Z,46.31
2023-05-22T06:40:01.331Z,46.15
2023-05-22T06:42:38.543Z,45.79
2023-05-22T06:45:23.942Z,46.22
2023-05-22T06:48:11.940Z,45.32
2023-05-22T06:50:48.946Z,44.78
2023-05-22T06:53:15.935Z,45.12
2023-05-22T06:55:43.094Z,44.40
2023-05-22T06:58:18.743Z,42.92
2023-05-22T07:00:45.905Z,42.46
2023-05-22T07:03:21.391Z,38.60
2023-05-22T07:06:18.260Z,39.39
2023-05-22T07:08:45.316Z,40.43
2023-05-22T07:11:12.263Z,40.83
2023-05-22T07:13:39.876Z,39.03
2023-05-22T07:16:07.502Z,38.76
2023-05-22T07:18:35.424Z,38.83
2023-05-22T07:21:02.649Z,38.19
2023-05-22T07:23:29.979Z,37.87
2023-05-22T07:25:57.202Z,37.48
2023-05-22T07:28:30.094Z,38.47
2023-05-22T07:31:10.394Z,38.07
2023-05-22T07:33:37.444Z,37.29
2023-05-22T07:36:04.831Z,37.69
2023-05-22T07:38:32.059Z,37.10
2023-05-22T07:41:04.946Z,36.97
2023-05-22T07:43:33.630Z,35.01
2023-05-22T07:46:00.750Z,35.38
2023-05-22T07:48:33.668Z,36.01
2023-05-22T07:51:00.591Z,35.25
2023-05-22T07:53:27.387Z,36.00
2023-05-22T07:55:57.403Z,35.40
2023-05-22T07:58:25.165Z,35.56
2023-05-22T08:00:52.897Z,36.13
2023-05-22T08:03:21.052Z,36.82
2023-05-22T08:05:50.274Z,36.44
2023-05-22T08:08:17.183Z,36.45
2023-05-22T08:11:01.818Z,34.92
2023-05-22T08:13:30.660Z,36.92
2023-05-22T08:16:00.393Z,36.92
2023-05-22T08:18:29.455Z,37.43
2023-05-22T08:20:56.902Z,37.87
2023-05-22T08:23:24.230Z,38.00
2023-05-22T08:25:51.005Z,37.45
2023-05-22T08:28:17.964Z,37.49
2023-05-22T08:30:45.022Z,37.19
2023-05-22T08:33:12.546Z,37.41
2023-05-22T08:35:39.747Z,36.96
2023-05-22T08:38:06.554Z,37.01
2023-05-22T08:40:38.341Z,36.25
2023-05-22T08:43:06.507Z,36.09
2023-05-22T08:45:34.317Z,35.19
2023-05-22T08:48:06.263Z,34.80
2023-05-22T08:50:38.529Z,34.50
2023-05-22T08:53:08.236Z,33.96
2023-05-22T08:55:35.609Z,33.41
2023-05-22T08:58:04.360Z,33.00
2023-05-22T09:00:31.761Z,32.37
2023-05-22T09:02:59.711Z,32.83
2023-05-22T09:05:27.247Z,31.96
2023-05-22T09:07:56.642Z,32.01
2023-05-22T09:10:25.951Z,31.56
2023-05-22T09:13:07.905Z,32.41
2023-05-22T09:15:36.820Z,32.65
2023-05-22T09:18:05.503Z,31.88
2023-05-22T09:20:38.024Z,31.45
2023-05-22T09:23:17.755Z,30.67
2023-05-22T09:25:45.099Z,30.07
2023-05-22T09:28:12.653Z,30.54
2023-05-22T09:30:40.360Z,30.87
2023-05-22T09:33:08.860Z,29.15
2023-05-22T09:35:39.591Z,29.36
2023-05-22T09:38:06.650Z,29.72
2023-05-22T09:40:35.037Z,29.53
2023-05-22T09:43:07.348Z,28.80
2023-05-22T09:45:38.371Z,28.98
2023-05-22T09:48:06.767Z,28.24
2023-05-22T09:50:33.669Z,27.27
2023-05-22T09:53:05.071Z,28.00
2023-05-22T09:55:32.369Z,28.32
2023-05-22T09:58:03.363Z,27.92
2023-05-22T10:00:33.056Z,26.86
2023-05-22T10:03:12.136Z,26.26
2023-05-22T10:05:43.799Z,25.63
2023-05-22T10:08:14.612Z,26.54
2023-05-22T10:10:45.846Z,24.44
2023-05-22T10:13:13.232Z,25.54
2023-05-22T10:15:41.109Z,25.33
2023-05-22T10:18:08.555Z,25.03
2023-05-22T10:20:36.058Z,23.70
2023-05-22T10:23:04.061Z,24.27
2023-05-22T10:25:30.978Z,24.48
2023-05-22T10:27:59.620Z,23.33
2023-05-22T10:30:34.926Z,23.42
2023-05-22T10:33:45.012Z,21.78
2023-05-22T10:36:26.097Z,22.59
2023-05-22T10:38:55.784Z,22.70
2023-05-22T10:41:23.592Z,23.15
2023-05-22T10:43:51.282Z,22.94
2023-05-22T10:46:18.809Z,21.74
2023-05-22T10:48:47.912Z,22.27
2023-05-22T10:51:25.092Z,23.18
2023-05-22T10:53:56.985Z,23.18
2023-05-22T10:56:25.493Z,22.31
2023-05-22T10:58:57.558Z,23.04
2023-05-22T11:01:27.619Z,22.80
2023-05-22T11:04:06.871Z,24.39
2023-05-22T11:07:04.604Z,23.71
2023-05-22T11:09:50.305Z,22.57
2023-05-22T11:12:20.980Z,21.46
2023-05-22T11:15:07.685Z,19.81
2023-05-22T11:17:50.255Z,17.67
2023-05-22T11:20:28.341Z,17.03
2023-05-22T11:23:05.868Z,18.71
2023-05-22T11:25:39.503Z,19.37
2023-05-22T11:28:07.389Z,20.11
2023-05-22T11:30:34.790Z,16.16
2023-05-22T11:33:02.371Z,13.75
2023-05-22T11:35:29.688Z,13.97
2023-05-22T11:37:57.050Z,13.25
2023-05-22T11:40:27.184Z,15.11
2023-05-22T11:42:54.431Z,16.47
2023-05-22T11:45:21.855Z,17.79
2023-05-22T11:47:49.242Z,20.29
2023-05-22T11:50:22.617Z,21.69
2023-05-22T11:52:50.140Z,22.39
2023-05-22T11:55:17.642Z,23.19
2023-05-22T11:57:44.836Z,23.66
2023-05-22T12:00:12.241Z,23.87
2023-05-22T12:02:44.516Z,24.86
2023-05-22T12:05:12.002Z,25.24
2023-05-22T12:07:39.069Z,26.20
2023-05-22T12:10:07.438Z,26.61
2023-05-22T12:12:34.459Z,27.10
2023-05-22T12:15:01.491Z,27.01
2023-05-22T12:17:28.796Z,27.47
2023-05-22T12:19:55.590Z,27.85
2023-05-22T12:22:26.283Z,28.54
2023-05-22T12:24:53.190Z,29.00
2023-05-22T12:27:20.192Z,29.31
2023-05-22T12:29:47.056Z,28.58
2023-05-22T12:32:14.099Z,28.31
2023-05-22T12:34:47.557Z,28.93
2023-05-22T12:37:28.544Z,29.59
2023-05-22T12:40:00.321Z,29.77
2023-05-22T12:42:28.472Z,29.30
2023-05-22T12:44:57.195Z,29.85
2023-05-22T12:47:24.955Z,28.91
2023-05-22T12:49:52.492Z,29.83
2023-05-22T12:52:19.672Z,28.85
2023-05-22T12:54:46.583Z,28.55
2023-05-22T12:57:13.506Z,28.53
2023-05-22T12:59:40.725Z,29.17
2023-05-22T13:02:07.970Z,29.41
2023-05-22T13:04:35.261Z,29.96
2023-05-22T13:07:02.245Z,30.33
2023-05-22T13:09:29.077Z,31.19
2023-05-22T13:11:56.785Z,30.90
2023-05-22T13:14:23.803Z,30.43
2023-05-22T13:16:50.656Z,30.25
2023-05-22T13:19:17.487Z,30.35
2023-05-22T13:21:44.484Z,30.67
2023-05-22T13:24:11.401Z,31.05
2023-05-22T13:26:38.445Z,30.89
2023-05-22T13:29:05.308Z,31.21
2023-05-22T13:31:37.471Z,31.50
2023-05-22T13:34:05.157Z,30.71
2023-05-22T13:36:32.343Z,29.74
2023-05-22T13:38:59.284Z,29.82
2023-05-22T13:41:27.000Z,30.09
2023-05-22T13:43:54.111Z,30.22
2023-05-22T13:46:22.464Z,30.64
2023-05-22T13:48:49.576Z,29.91
2023-05-22T13:51:16.447Z,28.93
2023-05-22T13:53:43.471Z,28.05
2023-05-22T13:56:11.105Z,27.83
2023-05-22T13:58:38.308Z,27.91
2023-05-22T14:01:05.415Z,27.00
2023-05-22T14:03:32.293Z,25.85
2023-05-22T14:05:59.156Z,26.68
2023-05-22T14:08:26.276Z,26.14
2023-05-22T14:10:53.260Z,26.09
2023-05-22T14:13:20.435Z,24.78
2023-05-22T14:15:48.404Z,26.34
2023-05-22T14:18:16.722Z,26.35
2023-05-22T14:20:44.862Z,26.00
2023-05-22T14:23:12.849Z,25.35
2023-05-22T14:25:42.983Z,25.96
2023-05-22T14:28:10.945Z,26.99
2023-05-22T14:30:38.116Z,27.59
2023-05-22T14:33:05.533Z,26.71
2023-05-22T14:35:32.522Z,26.49
2023-05-22T14:37:59.300Z,26.11
2023-05-22T14:40:26.077Z,26.12
2023-05-22T14:42:54.293Z,26.81
2023-05-22T14:45:21.492Z,26.91
2023-05-22T14:47:48.413Z,27.27
2023-05-22T14:50:19.712Z,27.37
2023-05-22T14:52:48.888Z,27.07
2023-05-22T14:55:18.619Z,26.85
2023-05-22T14:57:45.502Z,27.01
2023-05-22T15:00:15.233Z,27.62
2023-05-22T15:02:41.920Z,26.93
2023-05-22T15:05:09.799Z,26.63
2023-05-22T15:10:10.714Z,27.12
2023-05-22T15:12:37.633Z,28.22
2023-05-22T15:15:08.327Z,26.12
2023-05-22T15:17:35.311Z,26.70
2023-05-22T15:20:02.175Z,27.00
2023-05-22T15:22:29.002Z,27.07
2023-05-22T15:25:12.225Z,27.82
2023-05-22T15:27:39.703Z,28.13
2023-05-22T15:30:09.601Z,28.04
2023-05-22T15:32:37.399Z,28.34
2023-05-22T15:35:05.732Z,27.84
2023-05-22T15:37:33.876Z,28.03
2023-05-22T15:40:02.107Z,27.75
2023-05-22T15:42:29.111Z,28.25
2023-05-22T15:44:58.636Z,27.78
2023-05-22T15:47:25.477Z,27.24
2023-05-22T15:49:52.686Z,28.03
2023-05-22T15:52:21.033Z,27.64
2023-05-22T15:54:47.832Z,27.86
2023-05-22T15:57:14.719Z,28.93
2023-05-22T15:59:41.712Z,28.31
2023-05-22T16:02:08.564Z,27.99
2023-05-22T16:04:35.560Z,27.94
2023-05-22T16:07:02.457Z,27.91
2023-05-22T16:09:31.365Z,28.07
2023-05-22T16:12:02.541Z,28.02
2023-05-22T16:14:30.133Z,27.26
2023-05-22T16:16:56.931Z,27.30
2023-05-22T16:19:24.191Z,27.32
2023-05-22T16:21:53.333Z,27.13
2023-05-22T16:24:20.287Z,27.31
2023-05-22T16:26:47.166Z,27.74
2023-05-22T16:29:14.159Z,27.75
2023-05-22T16:31:42.250Z,27.26
2023-05-22T16:34:09.022Z,27.26
2023-05-22T16:36:36.106Z,27.11
2023-05-22T16:39:03.428Z,27.56
2023-05-22T16:41:30.459Z,28.72
2023-05-22T16:43:57.438Z,28.85
2023-05-22T16:46:24.521Z,29.36
2023-05-22T16:48:51.870Z,29.38
2023-05-22T16:51:18.727Z,29.35
2023-05-22T16:53:46.800Z,29.67
2023-05-22T16:56:14.563Z,29.52
2023-05-22T16:58:41.393Z,30.14
2023-05-22T17:01:08.791Z,30.32
2023-05-22T17:03:36.060Z,30.49
2023-05-22T17:06:03.272Z,30.69
2023-05-22T17:08:30.211Z,30.81
2023-05-22T17:10:57.066Z,31.15
2023-05-22T17:13:23.918Z,31.62
2023-05-22T17:15:51.452Z,31.69
2023-05-22T17:18:20.806Z,31.98
2023-05-22T17:20:49.383Z,32.24
2023-05-22T17:23:16.886Z,32.41
2023-05-22T17:25:46.517Z,32.57
2023-05-22T17:28:14.640Z,32.58
2023-05-22T17:30:42.759Z,32.32
2023-05-22T17:33:11.004Z,32.78
2023-05-22T17:35:38.056Z,32.85
2023-05-22T17:38:04.930Z,33.07
2023-05-22T17:40:44.111Z,33.44
2023-05-22T17:43:13.359Z,33.54
2023-05-22T17:45:40.378Z,33.36
2023-05-22T17:48:08.168Z,33.28
2023-05-22T17:50:35.394Z,33.45
2023-05-22T17:53:02.284Z,33.79
2023-05-22T17:55:29.195Z,34.25
2023-05-22T17:57:56.352Z,34.33
2023-05-22T18:00:23.539Z,34.74
2023-05-22T18:02:50.722Z,34.61
2023-05-22T18:05:17.814Z,35.29
2023-05-22T18:07:44.649Z,35.51
2023-05-22T18:10:11.735Z,35.79
2023-05-22T18:12:38.771Z,35.79
2023-05-22T18:15:08.623Z,35.94
2023-05-22T18:17:35.667Z,35.88
2023-05-22T18:20:03.884Z,36.53
2023-05-22T18:22:31.095Z,36.78
2023-05-22T18:24:58.055Z,36.72
2023-05-22T18:27:25.609Z,37.10
2023-05-22T18:29:52.513Z,37.41
2023-05-22T18:32:19.334Z,37.05
2023-05-22T18:34:46.586Z,36.89
2023-05-22T18:37:14.038Z,37.18
2023-05-22T18:39:41.065Z,37.28
2023-05-22T18:42:08.126Z,37.61
2023-05-22T18:44:35.140Z,37.46
2023-05-22T18:47:02.222Z,37.64
2023-05-22T18:49:29.136Z,37.95
2023-05-22T18:51:55.982Z,38.46
2023-05-22T18:54:23.081Z,38.52
2023-05-22T18:56:50.758Z,38.63
2023-05-22T18:59:17.598Z,39.11
2023-05-22T19:01:45.532Z,39.45
2023-05-22T19:04:12.441Z,39.73
2023-05-22T19:06:42.124Z,40.29
2023-05-22T19:09:12.659Z,40.47
2023-05-22T19:11:39.857Z,41.22
2023-05-22T19:14:06.991Z,41.39
2023-05-22T19:16:34.029Z,41.82
2023-05-22T19:19:01.068Z,41.97
2023-05-22T19:21:28.090Z,41.99
2023-05-22T19:23:54.910Z,41.85
2023-05-22T19:26:21.828Z,42.17
2023-05-22T19:28:48.601Z,42.59
2023-05-22T19:31:17.298Z,43.03
2023-05-22T19:33:44.778Z,42.99
2023-05-22T19:36:11.541Z,43.38
2023-05-22T19:38:38.411Z,43.85
2023-05-22T19:41:05.319Z,44.32
2023-05-22T19:43:32.251Z,44.42
2023-05-22T19:45:59.183Z,44.49
2023-05-22T19:48:26.991Z,44.57
2023-05-22T19:50:54.103Z,44.62
2023-05-22T19:53:21.297Z,45.08
2023-05-22T19:55:48.809Z,45.24
2023-05-22T19:58:15.653Z,45.15
2023-05-22T20:00:42.841Z,45.23
2023-05-22T20:03:09.988Z,45.21
2023-05-22T20:05:37.200Z,45.14
2023-05-22T20:08:04.149Z,45.00
2023-05-22T20:10:32.332Z,45.18
2023-05-22T20:13:00.328Z,45.19
2023-05-22T20:15:27.394Z,44.96
2023-05-22T20:17:54.477Z,45.02
2023-05-22T20:20:23.953Z,45.37
2023-05-22T20:22:52.838Z,45.20
2023-05-22T20:25:21.342Z,45.69
2023-05-22T20:27:48.123Z,45.58
2023-05-22T20:30:15.796Z,45.78
2023-05-22T20:32:45.521Z,45.64
2023-05-22T20:35:13.121Z,45.99
2023-05-22T20:37:41.639Z,46.37
2023-05-22T20:40:09.645Z,45.93
2023-05-22T20:42:37.677Z,46.03
2023-05-22T20:45:08.267Z,46.30
2023-05-22T20:47:36.168Z,46.26
2023-05-22T20:50:03.061Z,46.58
2023-05-22T20:52:30.480Z,46.74
2023-05-22T20:54:58.312Z,47.08
2023-05-22T20:57:25.610Z,46.84
2023-05-22T20:59:54.231Z,47.26
2023-05-22T21:02:21.143Z,47.34
2023-05-22T21:09:19.055Z,47.30
2023-05-22T21:11:45.967Z,47.10
2023-05-22T21:14:12.858Z,47.48
2023-05-22T21:16:40.313Z,47.35
2023-05-22T21:19:07.627Z,47.57
2023-05-22T21:21:36.220Z,47.36
2023-05-22T21:24:03.349Z,47.42
2023-05-22T21:26:30.374Z,47.74
2023-05-22T21:28:57.354Z,47.78
2023-05-22T21:31:24.184Z,48.48
2023-05-22T21:33:51.139Z,48.04
2023-05-22T21:36:17.944Z,48.04
2023-05-22T21:38:45.379Z,48.14
2023-05-22T21:41:13.293Z,48.23
2023-05-22T21:43:40.318Z,48.02
2023-05-22T21:46:07.380Z,48.14
2023-05-22T21:48:34.215Z,48.38
2023-05-22T21:51:01.093Z,48.72
2023-05-22T21:53:28.044Z,48.71
2023-05-22T21:55:54.993Z,48.51
2023-05-22T21:58:22.056Z,48.51
2023-05-22T22:00:48.853Z,48.62
2023-05-22T22:03:15.872Z,48.22
2023-05-22T22:05:42.882Z,48.69
2023-05-22T22:08:09.958Z,48.60
2023-05-22T22:10:36.899Z,48.32
2023-05-22T22:13:03.761Z,48.98
2023-05-22T22:15:32.140Z,49.08
2023-05-22T22:18:02.231Z,48.86
2023-05-22T22:20:44.071Z,49.13
2023-05-22T22:23:12.725Z,49.46
2023-05-22T22:25:39.735Z,49.41
2023-05-22T22:28:07.404Z,49.22
2023-05-22T22:30:35.554Z,49.60
2023-05-22T22:33:02.618Z,49.43
2023-05-22T22:35:29.602Z,49.97
2023-05-22T22:37:56.546Z,49.55
2023-05-22T22:40:25.325Z,49.66
2023-05-22T22:42:53.333Z,49.83
2023-05-22T22:45:20.312Z,50.12
2023-05-22T22:47:47.461Z,50.08
2023-05-22T22:50:14.350Z,49.98
2023-05-22T22:52:45.533Z,50.37
2023-05-22T22:55:13.465Z,50.87
2023-05-22T22:57:43.331Z,50.90
2023-05-22T23:00:13.415Z,51.47
2023-05-22T23:02:40.733Z,51.33
2023-05-22T23:05:08.264Z,51.49
2023-05-22T23:07:35.736Z,51.65
2023-05-22T23:10:02.674Z,52.03
2023-05-22T23:12:29.589Z,52.16
2023-05-22T23:14:56.558Z,52.47
2023-05-22T23:17:23.277Z,52.52
2023-05-22T23:19:50.045Z,53.04
2023-05-22T23:22:18.943Z,53.15
2023-05-22T23:24:45.906Z,53.32
2023-05-22T23:27:12.787Z,53.16
2023-05-22T23:29:40.521Z,53.39
2023-05-22T23:32:07.451Z,53.16
2023-05-22T23:34:34.387Z,53.43
2023-05-22T23:37:01.287Z,53.53
2023-05-22T23:39:28.090Z,53.75
2023-05-22T23:41:54.901Z,53.96
2023-05-22T23:44:21.856Z,54.28
2023-05-22T23:46:50.141Z,54.50
2023-05-22T23:49:16.920Z,54.64
2023-05-22T23:51:43.689Z,54.45
2023-05-22T23:54:11.297Z,54.88
2023-05-22T23:56:38.098Z,55.41
2023-05-22T23:59:04.842Z,55.39
